YBOA weather

Boonah Airport
Queensland, Australia

Public forecast

Using degrees Celsius for public forecast. Weather courtesy of forecast.io.

METAR (pilot weather report)

Closest report is RAAF Base Amberley, 22.6 nm (41.9 km) N. Retrieved 2019/02/16 19:30 UTC (11 minutes ago):

YAMB 161930Z AUTO 21007KT 9999 // NCD 18/15 Q1013

TAF (pilot weather forecast)

Closest forecast is RAAF Base Amberley, 22.6 nm (41.9 km) N. Retrieved 2019/02/16 18:00 UTC (2 hours ago):

TAF YAMB 161633Z 1618/1712 20006KT 9999 FEW035 FM162300 13010KT 9999 FEW040 FM170200 11014KT 9999 FEW045 FM170800 10008KT 9999 FEW040